Desert Springs, Nevada Weather observations

Data are for 10 minute period ending at time listed.
 Day   Time    Ave.   Ave.  Ave.  Vector   Max.   Total    Solar   
  of    of     Air    Rel.  Wind   Wind    Wind  Precip.   Rad.    
Year   Day     Temp.  Hum.  Speed  Dir.    Gust                    
2016   (PST)    F      %     mph   deg.    mph     in.     W/m2    
------------------------------------------------------------------- 
 207    5:00   64.0    24    7.0   239     11.0    4.33       0  
 207    6:00   65.0    21    7.0   236     10.0    4.33      34  
 207    7:00   66.0    21    4.0   248      9.0    4.33     233  
 207    8:00   73.0    17    5.0   232      7.0    4.33     439  
 207    9:00   79.0    13    5.0   277      9.0    4.33     625  
 207   10:00   82.0     9    9.0   310     17.0    4.33     792  
 207   11:00   86.0     7    8.0   301     13.0    4.33     911  
 207   12:00   88.0     7    4.0   215     19.0    4.33     955  
 207   13:00   90.0     6    5.0   188     12.0    4.33     985  
 207   14:00   91.0     7    8.0   273     24.0    4.33     970  
 207   15:00   92.0     9    8.0   259     26.0    4.33     863  
 207   16:00   92.0    10   17.0   306     27.0    4.33     711  
 207   17:00   91.0    11   21.0   290     31.0    4.33     547  
 207   18:00   88.0    12   21.0   299     30.0    4.33     355  
 207   19:00   84.0    15   21.0   295     28.0    4.33     166  
 207   20:00   78.0    21   18.0   280     28.0    4.33      20  
 207   21:00   75.0    25   16.0   282     25.0    4.33       0  
 207   22:00   71.0    29   16.0   261     20.0    4.33       0  
 207   23:00   69.0    29    8.0   257     20.0    4.33       0  
 208    0:00   68.0    30    7.0   224     12.0    4.33       0  
 208    1:00   68.0    26    9.0   241     15.0    4.33       0  
 208    2:00   68.0    26    6.0   261     15.0    4.33       0  
 208    3:00   68.0    23    8.0   246     10.0    4.33       0  
 208    4:00   65.0    26    7.0   236     10.0    4.33       0  

Return to Desert Springs, Nevada graphs page.


Western Regional Climate Center,wrcc@dri.edu